Time;durP1;ratioP1;P1;durP2;ratioP2;P2;SDS_P1;SDS_P2;PMS_P1;PMS_P2;Temp;Humidity;BMP_temperature;BMP_pressure;BME280_temperature;BME280_humidity;BME280_pressure;Samples;Min_cycle;Max_cycle;Signal;HPM_P1;HPM_P2
2023/03/12 00:01:38;;;;;;;2.50;1.67;;;11.40;54.30;;;;;;5056334;28;20048;-67
2023/03/12 00:04:03;;;;;;;2.65;1.45;;;11.40;54.90;;;;;;5056188;28;20033;-67
2023/03/12 00:06:30;;;;;;;2.05;1.55;;;11.40;54.70;;;;;;5056108;28;20081;-67
2023/03/12 00:08:56;;;;;;;3.90;1.92;;;11.40;54.50;;;;;;5056195;28;20029;-67
2023/03/12 00:11:22;;;;;;;4.07;1.60;;;11.40;54.90;;;;;;5055961;28;20032;-68
2023/03/12 00:13:53;;;;;;;6.70;1.52;;;11.40;54.20;;;;;;5055956;28;20037;-67
2023/03/12 00:16:19;;;;;;;3.47;1.60;;;11.40;53.70;;;;;;5056041;28;20109;-67
2023/03/12 00:18:48;;;;;;;2.70;1.70;;;11.30;53.30;;;;;;5037863;28;20041;-67
2023/03/12 00:21:15;;;;;;;3.13;1.60;;;11.30;53.30;;;;;;5056058;28;20110;-67
2023/03/12 00:23:40;;;;;;;4.45;1.50;;;11.30;52.80;;;;;;5056119;28;20029;-67
2023/03/12 00:26:09;;;;;;;3.50;1.50;;;11.20;53.10;;;;;;5055842;28;20025;-66
2023/03/12 00:28:35;;;;;;;2.25;1.38;;;11.20;53.30;;;;;;5055819;28;20469;-67
2023/03/12 00:31:02;;;;;;;4.63;1.50;;;11.30;53.40;;;;;;5056171;28;20032;-67
2023/03/12 00:33:28;;;;;;;3.10;1.40;;;11.20;53.20;;;;;;5055829;28;20053;-67
2023/03/12 00:35:55;;;;;;;1.80;1.10;;;11.20;52.40;;;;;;5055562;28;20086;-67
2023/03/12 00:38:24;;;;;;;2.78;1.38;;;11.20;52.60;;;;;;5055780;28;20029;-66
2023/03/12 00:40:50;;;;;;;3.13;1.33;;;11.20;52.10;;;;;;5055636;28;20388;-67
2023/03/12 00:43:15;;;;;;;2.05;1.13;;;11.20;53.00;;;;;;5055433;28;20025;-67
2023/03/12 00:45:41;;;;;;;1.65;1.02;;;11.20;53.00;;;;;;5055055;28;20037;-68
2023/03/12 00:48:07;;;;;;;3.55;1.80;;;11.20;52.80;;;;;;5055463;28;20021;-67
2023/03/12 00:50:32;;;;;;;4.20;1.45;;;11.10;52.20;;;;;;5055708;28;20078;-67
2023/03/12 00:52:58;;;;;;;2.28;1.42;;;11.10;51.20;;;;;;5055511;28;20071;-67
2023/03/12 00:55:24;;;;;;;8.20;1.25;;;11.10;51.10;;;;;;5055438;28;20104;-67
2023/03/12 00:57:49;;;;;;;2.83;1.10;;;11.10;50.90;;;;;;5055398;28;20083;-67
2023/03/12 01:00:16;;;;;;;1.88;1.27;;;11.10;50.90;;;;;;5055190;28;20029;-68
2023/03/12 01:02:41;;;;;;;2.85;1.30;;;11.00;51.30;;;;;;5054700;28;20096;-67
2023/03/12 01:05:10;;;;;;;2.28;1.27;;;11.00;51.20;;;;;;5055222;28;20152;-68
2023/03/12 01:07:36;;;;;;;2.65;1.63;;;11.00;51.60;;;;;;5055050;28;20476;-66
2023/03/12 01:10:02;;;;;;;2.40;1.17;;;11.00;52.30;;;;;;5054775;28;20033;-68
2023/03/12 01:12:28;;;;;;;1.85;1.13;;;10.90;51.10;;;;;;5054864;28;20496;-67
2023/03/12 01:14:53;;;;;;;2.03;1.30;;;10.90;51.10;;;;;;5054867;28;20136;-67
2023/03/12 01:17:19;;;;;;;2.17;1.13;;;10.90;52.00;;;;;;5054947;28;20056;-67
2023/03/12 01:19:45;;;;;;;2.42;1.20;;;11.00;51.40;;;;;;5054752;28;20032;-67
2023/03/12 01:22:10;;;;;;;1.60;1.23;;;10.90;51.10;;;;;;5054694;28;20380;-67
2023/03/12 01:24:36;;;;;;;2.63;1.05;;;11.00;51.60;;;;;;5054648;28;20025;-67
2023/03/12 01:27:01;;;;;;;2.33;1.17;;;10.90;51.00;;;;;;5054858;28;20035;-67
2023/03/12 01:29:27;;;;;;;5.70;1.30;;;10.90;51.50;;;;;;5054519;28;20047;-68
2023/03/12 01:31:53;;;;;;;2.53;1.15;;;10.90;51.60;;;;;;5054585;28;20025;-67
2023/03/12 01:34:18;;;;;;;1.52;1.10;;;10.90;52.00;;;;;;5054097;28;20075;-67
2023/03/12 01:36:46;;;;;;;2.50;1.27;;;10.90;51.50;;;;;;5054221;28;20017;-67
2023/03/12 01:39:12;;;;;;;1.55;1.10;;;10.80;51.70;;;;;;5054473;28;20032;-67
2023/03/12 01:41:39;;;;;;;1.77;1.13;;;10.90;51.70;;;;;;5054691;28;20067;-67
2023/03/12 01:44:06;;;;;;;5.03;1.30;;;10.80;51.50;;;;;;5054511;28;20384;-66
2023/03/12 01:46:33;;;;;;;3.85;1.02;;;10.80;51.50;;;;;;5054167;28;20129;-67
2023/03/12 01:49:13;;;;;;;1.92;1.17;;;10.80;51.10;;;;;;5054172;28;20053;-67
2023/03/12 01:51:43;;;;;;;2.83;1.05;;;10.80;50.60;;;;;;5053981;28;20021;-68
2023/03/12 01:54:14;;;;;;;2.65;1.20;;;10.80;50.60;;;;;;5054258;28;20476;-67
2023/03/12 01:56:40;;;;;;;1.58;1.02;;;10.80;50.50;;;;;;5054146;28;20025;-69
2023/03/12 01:59:12;;;;;;;4.68;0.98;;;10.80;49.40;;;;;;5051543;28;20362;-68
2023/03/12 02:01:39;;;;;;;2.43;1.10;;;10.80;49.00;;;;;;5051250;28;20384;-67
2023/03/12 02:04:05;;;;;;;1.98;1.13;;;10.80;49.30;;;;;;5051652;28;20267;-67
2023/03/12 02:07:05;;;;;;;1.95;1.17;;;10.70;49.30;;;;;;5053375;28;20104;-67
2023/03/12 02:09:33;;;;;;;2.38;1.20;;;10.70;48.70;;;;;;5053862;28;20029;-67
2023/03/12 02:11:59;;;;;;;2.22;1.00;;;10.60;48.90;;;;;;5053763;28;20025;-70
2023/03/12 02:14:25;;;;;;;3.70;0.97;;;10.60;48.80;;;;;;5034726;28;20028;-67
2023/03/12 02:16:52;;;;;;;2.88;1.45;;;10.60;48.30;;;;;;5053723;28;20021;-69
2023/03/12 02:19:47;;;;;;;2.25;1.33;;;10.50;49.00;;;;;;5053674;28;20033;-69
2023/03/12 02:22:14;;;;;;;3.53;1.20;;;10.50;48.30;;;;;;5008949;28;20123;-69
2023/03/12 02:25:03;;;;;;;4.63;1.40;;;10.50;47.90;;;;;;5053553;28;20036;-69
2023/03/12 02:27:33;;;;;;;1.92;0.90;;;10.40;48.60;;;;;;5053412;28;20155;-69
2023/03/12 02:30:00;;;;;;;1.50;0.90;;;10.40;48.80;;;;;;5053789;28;20025;-69
2023/03/12 02:32:32;;;;;;;2.07;1.07;;;10.30;49.00;;;;;;5053734;28;20102;-69
2023/03/12 02:34:59;;;;;;;3.13;1.27;;;10.30;49.10;;;;;;5053328;28;20025;-70
2023/03/12 02:37:25;;;;;;;6.57;1.00;;;10.20;49.20;;;;;;5052929;28;20036;-69
2023/03/12 02:40:04;;;;;;;3.23;1.20;;;10.20;49.00;;;;;;5053158;28;20033;-69
2023/03/12 02:42:31;;;;;;;1.73;0.97;;;10.20;49.50;;;;;;5053134;28;20028;-69
2023/03/12 02:44:58;;;;;;;3.17;1.27;;;10.10;49.90;;;;;;5053164;28;20389;-68
2023/03/12 02:47:23;;;;;;;2.37;0.97;;;10.10;49.70;;;;;;5052863;28;20059;-70
2023/03/12 02:49:49;;;;;;;4.23;1.10;;;10.10;50.10;;;;;;5053070;28;20021;-68
2023/03/12 02:52:15;;;;;;;3.67;1.10;;;10.10;50.30;;;;;;5052855;28;20104;-69
2023/03/12 02:54:41;;;;;;;1.67;0.90;;;10.10;49.40;;;;;;5053224;28;20032;-69
2023/03/12 02:57:07;;;;;;;2.23;1.00;;;10.10;49.50;;;;;;5053322;28;20487;-67
2023/03/12 02:59:32;;;;;;;2.67;0.90;;;10.00;48.70;;;;;;5053338;28;20120;-68
2023/03/12 03:01:59;;;;;;;2.03;1.00;;;10.00;48.90;;;;;;5053194;28;20465;-69
2023/03/12 03:04:26;;;;;;;1.67;0.90;;;10.00;48.40;;;;;;5053164;28;20057;-68
2023/03/12 03:06:52;;;;;;;2.47;1.03;;;10.00;48.30;;;;;;5052963;28;20033;-69
2023/03/12 03:09:20;;;;;;;1.90;1.00;;;9.90;48.50;;;;;;5053222;28;20033;-69
2023/03/12 03:11:46;;;;;;;1.20;0.90;;;9.90;48.80;;;;;;5052929;28;20059;-69
2023/03/12 03:14:12;;;;;;;3.17;1.30;;;9.80;49.00;;;;;;5053033;28;20060;-69
2023/03/12 03:16:38;;;;;;;2.03;1.20;;;9.70;49.40;;;;;;5052825;28;20021;-69
2023/03/12 03:19:04;;;;;;;1.90;1.00;;;9.70;49.70;;;;;;5052736;28;20033;-69
2023/03/12 03:21:30;;;;;;;2.43;1.00;;;9.70;49.60;;;;;;5052858;28;20039;-69
2023/03/12 03:23:56;;;;;;;3.53;1.10;;;9.70;49.50;;;;;;5052633;28;20117;-70
2023/03/12 03:26:23;;;;;;;1.97;1.13;;;9.70;50.10;;;;;;5052848;28;20092;-69
2023/03/12 03:28:49;;;;;;;1.60;0.83;;;9.70;50.40;;;;;;5052802;28;20059;-70
2023/03/12 03:31:16;;;;;;;3.40;1.20;;;9.60;50.70;;;;;;5053106;28;20021;-69
2023/03/12 03:33:42;;;;;;;3.10;1.10;;;9.70;49.60;;;;;;5052519;28;20032;-69
2023/03/12 03:36:09;;;;;;;1.10;0.80;;;9.60;50.20;;;;;;5052695;28;20063;-69
2023/03/12 03:38:36;;;;;;;4.00;1.00;;;9.60;49.70;;;;;;5052758;28;20029;-69
2023/03/12 03:41:02;;;;;;;2.40;1.10;;;9.50;49.80;;;;;;5052706;28;20029;-67
2023/03/12 03:43:27;;;;;;;1.87;0.97;;;9.50;49.20;;;;;;5052525;28;20025;-69
2023/03/12 03:45:58;;;;;;;2.40;1.30;;;9.50;49.90;;;;;;5052247;28;20107;-68
2023/03/12 03:48:24;;;;;;;1.90;0.97;;;9.40;49.10;;;;;;5052466;28;20025;-69
2023/03/12 03:50:49;;;;;;;2.83;1.10;;;9.40;49.60;;;;;;5052546;28;20484;-69
2023/03/12 03:53:15;;;;;;;3.77;1.13;;;9.30;50.10;;;;;;5052495;28;20029;-69
2023/03/12 03:55:41;;;;;;;2.50;1.00;;;9.40;50.00;;;;;;5052613;28;20025;-70
2023/03/12 03:58:07;;;;;;;1.97;0.83;;;9.30;50.30;;;;;;5052617;28;20392;-69
2023/03/12 04:00:32;;;;;;;2.77;1.20;;;9.30;50.70;;;;;;5052570;28;20378;-69
2023/03/12 04:02:59;;;;;;;2.70;1.00;;;9.30;50.60;;;;;;5052499;28;20075;-69
2023/03/12 04:05:24;;;;;;;1.93;0.90;;;9.30;50.70;;;;;;5052474;28;20033;-69
2023/03/12 04:07:54;;;;;;;1.40;1.00;;;9.30;50.50;;;;;;5052498;28;20515;-68
2023/03/12 04:10:20;;;;;;;1.97;1.17;;;9.30;50.10;;;;;;5052500;28;20047;-69
2023/03/12 04:12:46;;;;;;;2.00;1.00;;;9.20;49.90;;;;;;5052274;28;20522;-68
2023/03/12 04:15:11;;;;;;;3.00;1.10;;;9.20;50.20;;;;;;5052457;28;20021;-69
2023/03/12 04:17:37;;;;;;;5.20;1.30;;;9.20;50.20;;;;;;5052024;28;20021;-69
2023/03/12 04:20:08;;;;;;;3.47;1.27;;;9.20;50.60;;;;;;5051561;28;20035;-68
2023/03/12 04:22:34;;;;;;;2.53;1.07;;;9.20;50.50;;;;;;5052104;28;20021;-69
2023/03/12 04:24:59;;;;;;;1.67;1.10;;;9.10;50.20;;;;;;5052277;28;20385;-69
2023/03/12 04:27:25;;;;;;;2.23;0.93;;;9.10;50.40;;;;;;5052428;28;20067;-70
2023/03/12 04:29:51;;;;;;;2.53;1.20;;;9.10;50.50;;;;;;5052358;28;20080;-69
2023/03/12 04:32:17;;;;;;;2.37;1.10;;;9.10;50.20;;;;;;5052296;28;20056;-69
2023/03/12 04:34:42;;;;;;;3.93;0.80;;;9.10;50.20;;;;;;5051713;28;20025;-69
2023/03/12 04:37:12;;;;;;;1.20;0.90;;;9.00;49.90;;;;;;5054223;28;20025;-69
2023/03/12 04:39:39;;;;;;;1.40;0.80;;;9.10;49.50;;;;;;5055601;28;20029;-69
2023/03/12 04:42:05;;;;;;;1.43;0.90;;;9.10;49.60;;;;;;5055819;28;20040;-68
2023/03/12 04:44:30;;;;;;;1.77;1.00;;;9.00;50.00;;;;;;5055555;28;20036;-69
2023/03/12 04:46:56;;;;;;;2.47;1.20;;;9.00;50.60;;;;;;5055371;28;20485;-69
2023/03/12 04:49:22;;;;;;;2.43;1.30;;;9.00;50.80;;;;;;5055463;28;20385;-69
2023/03/12 04:51:47;;;;;;;3.97;1.40;;;9.00;50.70;;;;;;5055439;28;20049;-69
2023/03/12 04:54:13;;;;;;;1.20;0.90;;;8.90;50.80;;;;;;5055427;28;20040;-69
2023/03/12 04:56:39;;;;;;;4.40;1.00;;;9.00;49.90;;;;;;5055493;28;20035;-69
2023/03/12 04:59:04;;;;;;;3.20;1.10;;;9.00;50.10;;;;;;5055402;28;20103;-68
2023/03/12 05:01:34;;;;;;;2.27;1.10;;;9.00;50.00;;;;;;5055341;28;20469;-69
2023/03/12 05:04:00;;;;;;;1.57;1.00;;;9.00;50.10;;;;;;5055364;28;20107;-69
2023/03/12 05:06:25;;;;;;;6.07;1.20;;;9.00;50.20;;;;;;5055275;28;20112;-68
2023/03/12 05:08:52;;;;;;;1.80;1.10;;;8.90;49.90;;;;;;5055111;28;20112;-68
2023/03/12 05:11:18;;;;;;;2.73;1.13;;;8.90;50.30;;;;;;5036972;28;20029;-69
2023/03/12 05:13:44;;;;;;;2.43;1.10;;;8.90;50.60;;;;;;5037176;28;20021;-68
2023/03/12 05:16:11;;;;;;;2.50;1.13;;;8.90;50.60;;;;;;5054907;28;20067;-69
2023/03/12 05:18:37;;;;;;;2.30;1.10;;;8.80;50.60;;;;;;5055006;28;20036;-69
2023/03/12 05:21:32;;;;;;;1.77;1.10;;;8.80;50.80;;;;;;5054958;28;20033;-68
2023/03/12 05:23:58;;;;;;;1.70;1.10;;;8.80;50.60;;;;;;5033838;28;20026;-69
2023/03/12 05:26:32;;;;;;;2.37;1.40;;;8.80;51.00;;;;;;5054677;28;20045;-68
2023/03/12 05:28:59;;;;;;;2.93;1.20;;;8.80;50.90;;;;;;5055073;28;20150;-68
2023/03/12 05:31:25;;;;;;;1.90;1.07;;;8.80;50.50;;;;;;5054786;28;20078;-69
2023/03/12 05:33:51;;;;;;;2.73;1.50;;;8.70;50.10;;;;;;5054938;28;20029;-68
2023/03/12 05:36:17;;;;;;;4.50;1.80;;;8.70;50.30;;;;;;5054639;28;20025;-69
2023/03/12 05:38:43;;;;;;;4.07;1.63;;;8.70;50.50;;;;;;5055008;28;20033;-69
2023/03/12 05:41:20;;;;;;;2.33;1.33;;;8.70;50.70;;;;;;5054272;28;20021;-68
2023/03/12 05:43:46;;;;;;;2.80;1.20;;;8.60;50.20;;;;;;5054307;28;20047;-69
2023/03/12 05:46:11;;;;;;;1.70;1.10;;;8.60;50.00;;;;;;5053805;28;20493;-69
2023/03/12 05:48:37;;;;;;;2.90;1.20;;;8.60;49.90;;;;;;5054086;28;20477;-68
2023/03/12 05:51:03;;;;;;;2.80;1.40;;;8.60;50.00;;;;;;5054414;28;20469;-69
2023/03/12 05:53:29;;;;;;;2.37;1.20;;;8.50;50.50;;;;;;5054170;28;20035;-69
2023/03/12 05:55:54;;;;;;;2.57;1.07;;;8.50;50.50;;;;;;5054105;28;20029;-69
2023/03/12 05:58:20;;;;;;;4.23;1.17;;;8.50;50.30;;;;;;5053907;28;20036;-68
2023/03/12 06:00:46;;;;;;;2.97;1.20;;;8.50;50.70;;;;;;5054005;28;20033;-69
2023/03/12 06:03:12;;;;;;;2.23;1.00;;;8.50;51.30;;;;;;5053812;28;20087;-68
2023/03/12 06:05:38;;;;;;;2.80;1.23;;;8.50;51.90;;;;;;5054066;28;20025;-69
2023/03/12 06:08:04;;;;;;;2.20;1.10;;;8.50;51.50;;;;;;5054164;28;20519;-69
2023/03/12 06:10:30;;;;;;;3.97;1.10;;;8.50;51.70;;;;;;5054048;28;20032;-68
2023/03/12 06:12:57;;;;;;;4.50;1.37;;;8.50;52.00;;;;;;5036337;28;20025;-69
2023/03/12 06:15:22;;;;;;;2.47;1.17;;;8.60;51.70;;;;;;5053880;28;20036;-69
2023/03/12 06:17:48;;;;;;;2.80;1.40;;;8.60;51.60;;;;;;5054028;28;20025;-69
2023/03/12 06:20:14;;;;;;;2.90;1.23;;;8.60;51.50;;;;;;5053893;28;20079;-69
2023/03/12 06:22:40;;;;;;;2.67;1.40;;;8.60;51.30;;;;;;5053973;28;20379;-69
2023/03/12 06:25:06;;;;;;;3.03;1.17;;;8.70;51.70;;;;;;5054077;28;20025;-69
2023/03/12 06:27:32;;;;;;;2.40;1.10;;;8.70;51.70;;;;;;5053703;28;20370;-69
2023/03/12 06:29:57;;;;;;;1.77;1.20;;;8.70;51.50;;;;;;5053471;28;20086;-68
2023/03/12 06:32:23;;;;;;;1.90;1.10;;;8.70;51.80;;;;;;5053814;28;20029;-69
2023/03/12 06:34:49;;;;;;;5.73;1.40;;;8.80;52.20;;;;;;5053635;28;20029;-69
2023/03/12 06:37:14;;;;;;;2.67;1.20;;;8.80;51.00;;;;;;5053495;28;20056;-69
2023/03/12 06:39:40;;;;;;;2.43;1.10;;;8.80;51.50;;;;;;5053385;28;20052;-69
2023/03/12 06:42:06;;;;;;;3.83;1.20;;;8.80;50.80;;;;;;5053541;28;20607;-69
2023/03/12 06:44:32;;;;;;;4.53;1.40;;;8.80;50.60;;;;;;5052609;28;20465;-69
2023/03/12 06:46:58;;;;;;;2.40;1.20;;;8.80;50.80;;;;;;5032750;28;20099;-67
2023/03/12 06:49:23;;;;;;;1.40;0.80;;;8.80;50.90;;;;;;5032491;28;20022;-66
2023/03/12 06:51:49;;;;;;;1.77;0.80;;;8.90;50.80;;;;;;5033186;28;20025;-69
2023/03/12 06:54:15;;;;;;;3.30;1.33;;;8.90;50.40;;;;;;5033146;28;20108;-68
2023/03/12 06:56:41;;;;;;;2.17;1.00;;;9.00;50.20;;;;;;5033184;28;20032;-68
2023/03/12 06:59:07;;;;;;;1.70;1.07;;;9.00;49.90;;;;;;5032389;28;20072;-69
2023/03/12 07:01:33;;;;;;;2.03;1.10;;;9.00;49.80;;;;;;5033063;28;20057;-68
2023/03/12 07:03:58;;;;;;;5.00;1.03;;;9.00;49.90;;;;;;5032958;28;20033;-68
2023/03/12 07:06:24;;;;;;;2.80;1.20;;;9.00;49.60;;;;;;5032829;28;20519;-68
2023/03/12 07:08:50;;;;;;;2.17;1.07;;;9.00;49.60;;;;;;5033024;28;20516;-67
2023/03/12 07:11:19;;;;;;;5.00;1.60;;;9.00;49.90;;;;;;5033079;28;20036;-69
2023/03/12 07:13:45;;;;;;;2.37;1.23;;;9.10;50.20;;;;;;5032864;28;20029;-68
2023/03/12 07:16:11;;;;;;;1.43;0.97;;;9.10;49.80;;;;;;5032631;28;20026;-69
2023/03/12 07:18:37;;;;;;;3.57;1.13;;;9.20;49.30;;;;;;5032798;28;20053;-69
2023/03/12 07:21:03;;;;;;;3.07;1.40;;;9.20;49.40;;;;;;5033027;28;20111;-69
2023/03/12 07:23:28;;;;;;;1.63;1.00;;;9.30;49.40;;;;;;5033001;28;20032;-69
2023/03/12 07:25:54;;;;;;;3.10;1.17;;;9.30;49.40;;;;;;5031769;28;20458;-69
2023/03/12 07:28:21;;;;;;;3.37;1.07;;;9.40;49.30;;;;;;5032813;28;20025;-69
2023/03/12 07:30:49;;;;;;;3.57;1.50;;;9.40;49.50;;;;;;5032429;28;20025;-69
2023/03/12 07:33:19;;;;;;;2.37;1.00;;;9.50;50.00;;;;;;5032376;28;20020;-69
2023/03/12 07:36:06;;;;;;;3.53;1.27;;;9.50;50.20;;;;;;5032092;28;20075;-69
2023/03/12 07:38:32;;;;;;;2.50;1.10;;;9.70;50.00;;;;;;5015858;28;20547;-69
2023/03/12 07:40:59;;;;;;;2.20;0.80;;;9.70;49.30;;;;;;5031245;28;20041;-70
2023/03/12 07:43:25;;;;;;;2.03;0.90;;;9.80;48.70;;;;;;5012038;28;20049;-72
2023/03/12 07:45:50;;;;;;;2.70;1.13;;;9.80;48.60;;;;;;5029498;28;20069;-70
2023/03/12 07:48:18;;;;;;;2.07;1.03;;;9.90;48.90;;;;;;5031662;28;20052;-68
2023/03/12 07:50:44;;;;;;;3.30;1.47;;;10.00;48.80;;;;;;5029158;28;20025;-69
2023/03/12 07:53:10;;;;;;;2.17;1.00;;;10.00;48.60;;;;;;5028938;28;20488;-70
2023/03/12 07:55:36;;;;;;;1.90;1.10;;;10.00;48.90;;;;;;5031870;28;20032;-69
2023/03/12 07:58:02;;;;;;;4.60;1.20;;;10.10;49.20;;;;;;5030939;28;20467;-68
2023/03/12 08:00:29;;;;;;;2.83;1.00;;;10.10;48.30;;;;;;5031820;28;20452;-69
2023/03/12 08:02:55;;;;;;;2.00;1.10;;;10.20;48.60;;;;;;5031900;28;20417;-69
2023/03/12 08:05:24;;;;;;;4.40;1.10;;;10.20;48.10;;;;;;5031945;28;20096;-69
2023/03/12 08:07:52;;;;;;;2.83;1.20;;;10.20;48.20;;;;;;5032273;28;20021;-70
2023/03/12 08:10:19;;;;;;;2.60;1.20;;;10.30;48.30;;;;;;5045403;28;20107;-70
2023/03/12 08:12:45;;;;;;;1.73;1.10;;;10.30;48.10;;;;;;5053098;28;20499;-68
2023/03/12 08:15:11;;;;;;;2.83;1.00;;;10.40;47.30;;;;;;5054881;28;20163;-68
2023/03/12 08:17:38;;;;;;;2.35;1.00;;;10.50;47.10;;;;;;5055380;28;20497;-67
2023/03/12 08:20:07;;;;;;;2.23;1.03;;;10.50;47.40;;;;;;5055577;28;20048;-67
2023/03/12 08:22:32;;;;;;;3.17;0.80;;;10.50;47.70;;;;;;5055165;28;20056;-69
2023/03/12 08:24:58;;;;;;;2.25;0.90;;;10.60;47.50;;;;;;5055692;28;20065;-69
2023/03/12 08:27:24;;;;;;;2.13;1.00;;;10.60;47.30;;;;;;5055473;28;20024;-72
2023/03/12 08:29:49;;;;;;;2.03;1.13;;;10.70;46.50;;;;;;5055069;28;20051;-66
2023/03/12 08:32:15;;;;;;;2.03;0.90;;;10.70;46.90;;;;;;5055199;28;20048;-69
2023/03/12 08:34:41;;;;;;;3.73;0.80;;;10.80;46.90;;;;;;5055291;28;20114;-67
2023/03/12 08:37:06;;;;;;;2.63;1.27;;;10.80;47.20;;;;;;5055250;28;20079;-68
2023/03/12 08:39:32;;;;;;;1.80;1.00;;;10.90;46.90;;;;;;5054658;28;20374;-67
2023/03/12 08:41:58;;;;;;;2.25;1.02;;;10.90;47.40;;;;;;5054839;28;20029;-67
2023/03/12 08:44:24;;;;;;;2.13;1.13;;;11.00;47.10;;;;;;5045156;28;20105;-73
2023/03/12 08:46:50;;;;;;;2.45;1.00;;;11.10;45.80;;;;;;5035241;28;20469;-66
2023/03/12 08:49:16;;;;;;;2.58;1.00;;;11.10;45.20;;;;;;5035142;28;20053;-70
2023/03/12 08:51:42;;;;;;;3.75;1.50;;;11.10;44.90;;;;;;5034802;28;20456;-70
2023/03/12 08:54:08;;;;;;;1.83;1.08;;;11.20;45.70;;;;;;5034921;28;20021;-68
2023/03/12 08:56:35;;;;;;;2.55;1.38;;;11.20;46.40;;;;;;5038461;28;20020;-67
2023/03/12 08:59:01;;;;;;;4.55;1.00;;;11.30;46.50;;;;;;5054698;28;20052;-69
2023/03/12 09:01:27;;;;;;;2.75;0.98;;;11.30;45.00;;;;;;5054789;28;20406;-67
2023/03/12 09:03:54;;;;;;;6.53;1.00;;;11.40;46.00;;;;;;5055101;28;20052;-67
2023/03/12 09:06:20;;;;;;;1.88;1.10;;;11.40;46.10;;;;;;5055107;28;20461;-67
2023/03/12 09:08:46;;;;;;;1.88;0.98;;;11.50;46.30;;;;;;5055083;28;20017;-67
2023/03/12 09:11:14;;;;;;;10.02;1.20;;;11.50;45.00;;;;;;5055082;28;20099;-67
2023/03/12 09:13:40;;;;;;;2.38;0.80;;;11.60;46.00;;;;;;5051612;28;20033;-67
2023/03/12 09:16:07;;;;;;;2.25;0.90;;;11.60;45.70;;;;;;5045089;28;20488;-67
2023/03/12 09:18:34;;;;;;;2.28;1.00;;;11.70;46.10;;;;;;5054618;28;20021;-68
2023/03/12 09:21:00;;;;;;;1.83;1.10;;;11.70;46.30;;;;;;5055052;28;20120;-67
2023/03/12 09:23:27;;;;;;;1.45;0.90;;;11.80;46.40;;;;;;5054540;28;20108;-67
2023/03/12 09:25:53;;;;;;;1.75;0.80;;;11.90;45.40;;;;;;5054627;28;20021;-68
2023/03/12 09:28:19;;;;;;;1.48;0.90;;;11.90;46.00;;;;;;5054675;28;20104;-67
2023/03/12 09:30:45;;;;;;;1.88;0.73;;;12.00;45.40;;;;;;5054576;28;20078;-67
2023/03/12 09:33:11;;;;;;;3.08;0.80;;;12.10;46.10;;;;;;5053039;28;20029;-67
2023/03/12 09:35:36;;;;;;;1.75;0.90;;;12.10;45.00;;;;;;5051635;28;20028;-66
2023/03/12 09:38:02;;;;;;;2.95;1.20;;;12.10;45.90;;;;;;5052597;28;20017;-74
2023/03/12 09:40:36;;;;;;;2.08;1.00;;;12.20;45.70;;;;;;5054408;28;20048;-66
2023/03/12 09:43:07;;;;;;;1.60;0.82;;;12.20;45.50;;;;;;5054284;28;20086;-67
2023/03/12 09:45:38;;;;;;;1.10;0.80;;;12.20;45.80;;;;;;5053506;28;20149;-78
2023/03/12 09:48:16;;;;;;;2.28;0.82;;;12.40;45.00;;;;;;5054365;28;20080;-74
2023/03/12 09:50:48;;;;;;;1.38;0.95;;;12.40;45.20;;;;;;5053958;28;20053;-67
2023/03/12 09:53:34;;;;;;;1.50;1.02;;;12.50;45.30;;;;;;5054042;28;20546;-66
2023/03/12 09:56:08;;;;;;;1.48;0.88;;;12.60;45.30;;;;;;5054192;28;20079;-66
2023/03/12 09:58:37;;;;;;;4.13;1.10;;;12.60;45.20;;;;;;5051200;28;20842;-69
2023/03/12 10:01:36;;;;;;;2.20;1.10;;;12.70;45.40;;;;;;5050836;28;20029;-68
2023/03/12 10:04:50;;;;;;;2.05;0.93;;;12.80;44.90;;;;;;5051262;28;20119;-68
2023/03/12 10:07:41;;;;;;;2.22;1.35;;;12.80;45.30;;;;;;4965058;28;20043;-68
2023/03/12 10:10:32;;;;;;;3.47;1.13;;;13.00;45.40;;;;;;5052870;28;20021;-68
2023/03/12 10:13:16;;;;;;;2.95;1.13;;;13.00;44.70;;;;;;5053195;28;20021;-69
2023/03/12 10:15:54;;;;;;;1.55;0.90;;;13.10;45.80;;;;;;5053647;28;20021;-68
2023/03/12 10:18:25;;;;;;;1.70;1.13;;;13.20;46.10;;;;;;5053822;28;20021;-69
2023/03/12 10:21:07;;;;;;;1.98;1.27;;;13.30;45.70;;;;;;5053117;28;20053;-69
2023/03/12 10:23:50;;;;;;;2.28;1.00;;;13.50;45.70;;;;;;5053682;28;20100;-67
2023/03/12 10:26:28;;;;;;;1.92;1.10;;;13.60;45.90;;;;;;5053557;28;20435;-69
2023/03/12 10:29:01;;;;;;;2.08;1.05;;;13.70;45.30;;;;;;5053044;28;20546;-68
2023/03/12 10:32:15;;;;;;;2.10;0.98;;;13.70;45.00;;;;;;5053074;28;20496;-67
2023/03/12 10:35:01;;;;;;;1.50;0.90;;;13.80;43.90;;;;;;5044280;28;20076;-69
2023/03/12 10:37:55;;;;;;;1.85;0.98;;;13.90;43.50;;;;;;5053531;28;20032;-68
2023/03/12 10:40:24;;;;;;;1.50;0.95;;;13.90;43.60;;;;;;5048433;28;20079;-68
2023/03/12 10:42:51;;;;;;;2.65;1.27;;;13.90;42.60;;;;;;5039518;28;20170;-69
2023/03/12 10:45:26;;;;;;;2.90;1.20;;;13.90;42.60;;;;;;5053116;28;20025;-67
2023/03/12 10:47:56;;;;;;;4.57;1.08;;;13.90;43.20;;;;;;5053372;28;20124;-68
2023/03/12 10:50:31;;;;;;;1.35;1.10;;;13.90;42.70;;;;;;5053131;28;20040;-71
2023/03/12 10:53:29;;;;;;;2.05;1.10;;;13.90;42.60;;;;;;5053089;28;20021;-69
2023/03/12 10:56:00;;;;;;;4.07;1.15;;;14.00;42.80;;;;;;5034633;28;20021;-68
2023/03/12 10:58:35;;;;;;;4.82;1.15;;;14.00;42.90;;;;;;5053123;28;20104;-69
2023/03/12 11:01:02;;;;;;;2.13;0.90;;;14.00;42.30;;;;;;5047440;28;20068;-68
2023/03/12 11:03:28;;;;;;;1.35;0.65;;;14.00;42.70;;;;;;5043455;28;20045;-68
2023/03/12 11:05:58;;;;;;;1.80;1.30;;;14.10;42.60;;;;;;5042128;28;20049;-68
2023/03/12 11:08:36;;;;;;;1.90;0.90;;;14.10;43.40;;;;;;5041345;28;20056;-68
2023/03/12 11:11:03;;;;;;;1.85;1.10;;;14.10;42.30;;;;;;5041305;28;20113;-68
2023/03/12 11:13:40;;;;;;;2.00;1.08;;;14.20;42.20;;;;;;5049559;28;20029;-68
2023/03/12 11:16:18;;;;;;;2.45;1.27;;;14.20;42.70;;;;;;5052205;28;20529;-66
2023/03/12 11:19:00;;;;;;;1.90;0.90;;;14.30;41.50;;;;;;5051646;28;20585;-67
2023/03/12 11:21:27;;;;;;;3.15;1.10;;;14.30;43.00;;;;;;5034613;28;20504;-68
2023/03/12 11:23:56;;;;;;;2.80;0.90;;;14.40;42.20;;;;;;5049702;28;20052;-67
2023/03/12 11:26:37;;;;;;;5.35;0.93;;;14.40;42.50;;;;;;5035748;28;20113;-67
2023/03/12 11:29:12;;;;;;;3.25;1.10;;;14.40;42.60;;;;;;5032560;28;20032;-67
2023/03/12 11:31:43;;;;;;;2.47;0.90;;;14.50;42.60;;;;;;5038890;28;20049;-70
2023/03/12 11:34:25;;;;;;;3.08;0.95;;;14.50;42.50;;;;;;5022564;28;20476;-68
2023/03/12 11:37:09;;;;;;;2.33;0.75;;;14.60;41.90;;;;;;5037676;28;20021;-67
2023/03/12 11:39:46;;;;;;;11.88;1.25;;;14.60;42.80;;;;;;5040035;28;20051;-67
2023/03/12 11:42:26;;;;;;;6.82;1.10;;;14.70;43.30;;;;;;5032563;28;20013;-67
2023/03/12 11:45:03;;;;;;;1.63;0.93;;;14.70;43.60;;;;;;5034114;28;20359;-67
2023/03/12 11:47:55;;;;;;;1.52;1.00;;;14.80;42.00;;;;;;5041344;28;20129;-67
2023/03/12 11:50:55;;;;;;;2.75;1.08;;;14.80;42.50;;;;;;5036904;28;20044;-68
2023/03/12 11:53:32;;;;;;;1.20;0.85;;;14.80;43.00;;;;;;5036744;28;20065;-67
2023/03/12 11:56:09;;;;;;;2.17;0.90;;;14.80;43.20;;;;;;5036103;28;20382;-68
2023/03/12 11:58:53;;;;;;;3.10;1.00;;;14.90;43.20;;;;;;5039389;28;20546;-68
2023/03/12 12:01:35;;;;;;;1.45;0.95;;;14.90;42.50;;;;;;5043997;28;20056;-68
2023/03/12 12:04:52;;;;;;;2.65;0.98;;;15.00;42.20;;;;;;5035157;28;20484;-68
2023/03/12 12:07:56;;;;;;;2.38;1.52;;;15.10;41.10;;;;;;4994746;28;20037;-68
2023/03/12 12:10:49;;;;;;;2.42;1.00;;;15.10;42.10;;;;;;4939351;29;20579;-67
2023/03/12 12:13:51;;;;;;;1.73;0.95;;;15.20;42.20;;;;;;4941271;29;20117;-67
2023/03/12 12:16:35;;;;;;;1.65;0.80;;;15.30;41.90;;;;;;4980074;28;20030;-68
2023/03/12 12:19:17;;;;;;;1.55;0.82;;;15.30;42.40;;;;;;5034655;28;20030;-68
2023/03/12 12:22:10;;;;;;;2.65;1.00;;;15.40;43.00;;;;;;5035021;28;20022;-68
2023/03/12 12:25:14;;;;;;;;;;;15.50;40.40;;;;;;5033377;28;20112;-68
2023/03/12 12:27:50;;;;;;;3.45;1.23;;;15.60;41.40;;;;;;4952471;29;20307;-68
2023/03/12 12:30:45;;;;;;;3.42;1.00;;;15.60;42.20;;;;;;4954483;29;20038;-68
2023/03/12 12:33:17;;;;;;;5.00;1.17;;;15.70;42.10;;;;;;5006979;28;20044;-68
2023/03/12 12:35:44;;;;;;;1.90;1.08;;;15.70;42.60;;;;;;5041392;28;20218;-66
2023/03/12 12:38:20;;;;;;;1.95;1.08;;;15.80;42.70;;;;;;5041833;28;20049;-67
2023/03/12 12:40:55;;;;;;;1.17;0.80;;;15.90;42.30;;;;;;5035110;28;20393;-67
2023/03/12 12:43:23;;;;;;;1.45;0.77;;;15.90;42.20;;;;;;5035502;28;20524;-67
2023/03/12 12:45:51;;;;;;;5.55;1.05;;;16.00;41.50;;;;;;5035445;28;20045;-68
2023/03/12 12:48:24;;;;;;;1.63;0.80;;;16.00;41.30;;;;;;5035621;28;20029;-67
2023/03/12 12:50:51;;;;;;;1.50;0.90;;;16.00;41.60;;;;;;5035582;28;20096;-67
2023/03/12 12:53:53;;;;;;;3.58;0.90;;;16.00;41.50;;;;;;5035192;28;20104;-67
2023/03/12 12:56:22;;;;;;;2.35;1.10;;;16.00;40.10;;;;;;5035429;28;20063;-68
2023/03/12 12:58:56;;;;;;;1.85;0.75;;;16.00;41.20;;;;;;5034902;28;20083;-68
2023/03/12 13:01:22;;;;;;;2.97;1.20;;;16.00;40.70;;;;;;5034914;28;20390;-68
2023/03/12 13:03:49;;;;;;;1.67;0.90;;;16.10;41.80;;;;;;5036333;28;20047;-68
2023/03/12 13:06:15;;;;;;;2.67;0.80;;;16.10;42.60;;;;;;5043791;28;20031;-69